Terminal Aerodrome Forecast
Issued by NWS

Home | Current Version | Previous Version | Text Only | Print | Product List | Glossary On
Versions: 1 2 3 4 5 6 7 8 9 10 11 12 13 14 15 16 17 18 19 20
000
FTUS46 KMTR 031720
TAFMRY
TAF
KMRY 031720Z 0318/0418 30005KT P6SM SCT012
     FM031900 29009KT P6SM FEW015
     FM040300 26005KT P6SM BKN009
     FM040400 26004KT P6SM OVC007
     FM041400 VRB03KT 6SM BR OVC004
     FM041700 VRB04KT P6SM BKN010=

USA.gov is the U.S. government's official web portal to all federal, state and local government web resources and services.